createdAt,value
2018-02-16T00:01:50.089Z,77.17
2018-02-16T00:06:51.468Z,76.68
2018-02-16T00:11:52.811Z,76.53
2018-02-16T00:16:54.923Z,76.46
2018-02-16T00:21:56.985Z,76.16
2018-02-16T00:26:58.340Z,76.01
2018-02-16T00:31:59.681Z,76.46
2018-02-16T00:37:01.078Z,76.41
2018-02-16T00:42:02.415Z,76.62
2018-02-16T00:47:03.739Z,76.59
2018-02-16T00:52:05.853Z,76.69
2018-02-16T00:57:07.188Z,76.80
2018-02-16T01:02:08.520Z,76.77
2018-02-16T01:07:09.862Z,76.67
2018-02-16T01:12:11.251Z,76.59
2018-02-16T01:17:12.606Z,76.48
2018-02-16T01:22:13.962Z,76.52
2018-02-16T01:27:15.305Z,76.46
2018-02-16T01:32:17.379Z,76.57
2018-02-16T01:37:18.768Z,76.88
2018-02-16T01:42:20.132Z,77.04
2018-02-16T01:47:21.534Z,77.66
2018-02-16T01:52:22.895Z,77.72
2018-02-16T01:57:24.290Z,77.93
2018-02-16T02:02:25.643Z,77.93
2018-02-16T02:07:26.984Z,78.12
2018-02-16T02:12:28.315Z,78.03
2018-02-16T02:17:29.627Z,78.09
2018-02-16T02:22:31.691Z,77.66
2018-02-16T02:27:33.043Z,78.05
2018-02-16T02:32:34.407Z,77.92
2018-02-16T02:37:36.506Z,78.04
2018-02-16T02:42:38.590Z,78.20
2018-02-16T02:47:39.942Z,78.28
2018-02-16T02:52:41.288Z,78.14
2018-02-16T02:57:48.892Z,77.98
2018-02-16T03:02:50.239Z,78.02
2018-02-16T03:07:52.291Z,78.17
2018-02-16T03:12:53.700Z,78.14
2018-02-16T03:17:55.065Z,78.05
2018-02-16T03:22:56.429Z,78.07
2018-02-16T03:27:57.776Z,77.83
2018-02-16T03:32:59.175Z,77.80
2018-02-16T03:38:00.550Z,77.71
2018-02-16T03:43:01.953Z,77.73
2018-02-16T03:48:03.299Z,77.48
2018-02-16T03:53:04.651Z,77.68
2018-02-16T03:58:06.803Z,77.89
2018-02-16T04:03:08.147Z,78.08
2018-02-16T04:08:10.227Z,78.50
2018-02-16T04:13:13.392Z,78.56
2018-02-16T04:18:14.784Z,78.69
2018-02-16T04:23:16.130Z,78.81
2018-02-16T04:28:17.476Z,78.75
2018-02-16T04:33:18.789Z,79.16
2018-02-16T04:38:20.126Z,78.87
2018-02-16T04:43:22.223Z,78.97
2018-02-16T04:48:23.563Z,78.80
2018-02-16T04:53:24.967Z,78.47
2018-02-16T04:58:26.341Z,78.51
2018-02-16T05:03:27.690Z,78.83
2018-02-16T05:08:29.832Z,78.88
2018-02-16T05:13:31.161Z,78.92
2018-02-16T05:18:32.508Z,78.69
2018-02-16T05:23:33.826Z,78.52
2018-02-16T05:28:35.230Z,78.29
2018-02-16T05:33:37.610Z,78.47
2018-02-16T05:38:39.952Z,78.21
2018-02-16T05:43:42.186Z,78.38
2018-02-16T05:48:43.617Z,78.13
2018-02-16T05:53:44.990Z,78.58
2018-02-16T05:58:47.069Z,78.60
2018-02-16T06:03:48.415Z,77.87
2018-02-16T06:08:49.766Z,78.37
2018-02-16T06:13:51.150Z,78.39
2018-02-16T06:18:52.508Z,78.70
2018-02-16T06:23:53.837Z,78.47
2018-02-16T06:28:55.197Z,78.80
2018-02-16T06:33:56.545Z,78.25
2018-02-16T06:38:57.887Z,78.37
2018-02-16T06:43:59.205Z,78.36
2018-02-16T06:49:01.282Z,78.05
2018-02-16T06:54:02.638Z,78.35
2018-02-16T06:59:03.965Z,78.56
2018-02-16T07:04:05.331Z,78.45
2018-02-16T07:09:06.754Z,78.01
2018-02-16T07:14:08.168Z,78.72
2018-02-16T07:19:10.230Z,78.26
2018-02-16T07:24:11.647Z,78.23
2018-02-16T07:29:13.013Z,78.04
2018-02-16T07:34:14.403Z,77.80
2018-02-16T07:39:15.761Z,77.65
2018-02-16T07:44:17.078Z,78.52
2018-02-16T07:49:18.446Z,78.23
2018-02-16T07:54:19.823Z,78.15
2018-02-16T07:59:21.164Z,77.91
2018-02-16T08:04:22.505Z,77.85
2018-02-16T08:09:23.817Z,77.67
2018-02-16T08:14:25.163Z,77.63
2018-02-16T08:19:27.276Z,77.55
2018-02-16T08:24:29.375Z,77.32
2018-02-16T08:29:31.438Z,77.20
2018-02-16T08:34:32.768Z,76.90
2018-02-16T08:39:34.834Z,76.55
2018-02-16T08:44:36.218Z,76.43
2018-02-16T08:49:37.555Z,76.32
2018-02-16T08:54:39.651Z,76.07
2018-02-16T08:59:40.992Z,75.84
2018-02-16T09:04:42.325Z,75.82
2018-02-16T09:09:43.683Z,75.54
2018-02-16T09:14:45.080Z,75.48
2018-02-16T09:19:46.391Z,75.01
2018-02-16T09:24:47.707Z,74.81
2018-02-16T09:29:49.784Z,74.69
2018-02-16T09:34:51.146Z,74.52
2018-02-16T09:39:52.646Z,74.16
2018-02-16T09:44:54.006Z,73.60
2018-02-16T09:49:55.338Z,73.93
2018-02-16T09:54:59.734Z,73.55
2018-02-16T10:00:01.828Z,73.02
2018-02-16T10:05:03.258Z,72.35
2018-02-16T10:10:04.638Z,72.26
2018-02-16T10:15:05.990Z,71.67
2018-02-16T10:20:07.341Z,71.36
2018-02-16T10:25:08.707Z,69.74
2018-02-16T10:30:10.114Z,69.60
2018-02-16T10:35:11.411Z,69.15
2018-02-16T10:40:12.757Z,69.58
2018-02-16T10:45:14.806Z,70.10
2018-02-16T10:50:16.146Z,70.27
2018-02-16T10:55:17.511Z,69.01
2018-02-16T11:00:24.933Z,69.33
2018-02-16T11:05:32.505Z,69.00
2018-02-16T11:10:34.623Z,68.02
2018-02-16T11:15:36.747Z,66.89
2018-02-16T11:20:38.161Z,66.85
2018-02-16T11:25:39.548Z,65.95
2018-02-16T11:30:40.896Z,66.03
2018-02-16T11:35:43.007Z,65.82
2018-02-16T11:40:44.364Z,65.22
2018-02-16T11:45:45.731Z,64.66
2018-02-16T11:50:47.079Z,62.88
2018-02-16T11:55:49.155Z,62.79
2018-02-16T12:00:50.527Z,62.88
2018-02-16T12:05:51.844Z,63.08
2018-02-16T12:10:53.182Z,63.29
2018-02-16T12:15:54.518Z,62.46
2018-02-16T12:20:55.847Z,60.98
2018-02-16T12:25:57.981Z,59.94
2018-02-16T12:30:59.352Z,60.57
2018-02-16T12:36:00.692Z,58.84
2018-02-16T12:41:02.096Z,57.85
2018-02-16T12:46:04.232Z,58.46
2018-02-16T12:51:05.626Z,57.97
2018-02-16T12:56:06.969Z,57.05
2018-02-16T13:01:08.335Z,58.54
2018-02-16T13:06:09.696Z,57.62
2018-02-16T13:11:11.027Z,57.63
2018-02-16T13:16:12.420Z,57.95
2018-02-16T13:21:13.796Z,56.98
2018-02-16T13:26:15.954Z,56.70
2018-02-16T13:31:18.046Z,56.90
2018-02-16T13:36:19.402Z,56.90
2018-02-16T13:41:20.788Z,57.03
2018-02-16T13:46:22.116Z,57.26
2018-02-16T13:51:23.426Z,57.59
2018-02-16T13:56:25.560Z,56.93
2018-02-16T14:01:27.262Z,57.97
2018-02-16T14:06:28.973Z,57.71
2018-02-16T14:11:30.427Z,56.90
2018-02-16T14:16:33.763Z,57.05
2018-02-16T14:21:35.143Z,57.04
2018-02-16T14:26:36.580Z,56.74
2018-02-16T14:31:38.171Z,56.42
2018-02-16T14:36:39.535Z,55.76
2018-02-16T14:41:40.901Z,55.16
2018-02-16T14:46:43.024Z,55.13
2018-02-16T14:51:45.107Z,55.65
2018-02-16T14:56:46.479Z,56.09
2018-02-16T15:01:47.822Z,56.00
2018-02-16T15:06:49.215Z,55.08
2018-02-16T15:11:50.552Z,55.16
2018-02-16T15:16:51.939Z,55.42
2018-02-16T15:21:53.287Z,55.51
2018-02-16T15:26:54.794Z,55.76
2018-02-16T15:31:56.178Z,55.78
2018-02-16T15:36:57.579Z,55.88
2018-02-16T15:41:59.129Z,56.23
2018-02-16T15:47:00.547Z,56.35
2018-02-16T15:52:02.003Z,56.35
2018-02-16T15:57:03.387Z,56.59
2018-02-16T16:02:04.746Z,56.87
2018-02-16T16:07:06.352Z,56.88
2018-02-16T16:12:07.856Z,56.95
2018-02-16T16:17:09.233Z,57.30
2018-02-16T16:22:10.698Z,57.44
2018-02-16T16:27:12.086Z,57.66
2018-02-16T16:32:14.514Z,57.84
2018-02-16T16:37:15.998Z,58.04
2018-02-16T16:42:17.346Z,58.41
2018-02-16T16:47:18.663Z,58.73
2018-02-16T16:52:20.022Z,58.95
2018-02-16T16:57:21.421Z,59.25
2018-02-16T17:02:22.746Z,60.05
2018-02-16T17:07:24.134Z,60.94
2018-02-16T17:12:25.611Z,61.34
2018-02-16T17:17:27.733Z,61.43
2018-02-16T17:22:29.154Z,61.42
2018-02-16T17:27:30.522Z,61.11
2018-02-16T17:32:31.924Z,61.04
2018-02-16T17:37:33.346Z,61.20
2018-02-16T17:42:34.762Z,61.58
2018-02-16T17:47:36.123Z,61.73
2018-02-16T17:52:37.524Z,62.03
2018-02-16T17:57:38.864Z,62.57
2018-02-16T18:02:40.265Z,62.87
2018-02-16T18:07:41.629Z,63.04
2018-02-16T18:12:43.072Z,62.94
2018-02-16T18:17:44.387Z,62.97
2018-02-16T18:22:45.753Z,63.02
2018-02-16T18:27:47.078Z,63.30
2018-02-16T18:32:48.458Z,63.74
2018-02-16T18:37:49.809Z,64.07
2018-02-16T18:42:51.222Z,64.31
2018-02-16T18:47:52.579Z,64.17
2018-02-16T18:52:53.986Z,63.73
2018-02-16T18:57:56.208Z,63.85
2018-02-16T19:02:59.031Z,64.09
2018-02-16T19:08:00.412Z,64.46
2018-02-16T19:13:02.012Z,64.47
2018-02-16T19:18:03.803Z,64.81
2018-02-16T19:23:05.596Z,65.26
2018-02-16T19:28:11.274Z,65.51
2018-02-16T19:33:14.251Z,65.59
2018-02-16T19:38:15.681Z,65.91
2018-02-16T19:43:17.442Z,65.95
2018-02-16T19:48:18.844Z,65.88
2018-02-16T19:53:20.983Z,66.00
2018-02-16T19:58:22.343Z,66.36
2018-02-16T20:03:24.974Z,66.55
2018-02-16T20:08:26.470Z,66.84
2018-02-16T20:13:28.734Z,67.15
2018-02-16T20:18:30.172Z,67.27
2018-02-16T20:23:31.572Z,67.40
2018-02-16T20:28:33.687Z,67.64
2018-02-16T20:33:35.140Z,67.80
2018-02-16T20:38:36.585Z,68.01
2018-02-16T20:43:38.162Z,68.10
2018-02-16T20:48:40.347Z,68.31
2018-02-16T20:53:41.700Z,68.42
2018-02-16T20:58:43.052Z,68.55
2018-02-16T21:03:44.469Z,68.82
2018-02-16T21:08:45.886Z,68.70
2018-02-16T21:13:47.216Z,68.65
2018-02-16T21:18:49.306Z,68.73
2018-02-16T21:23:51.388Z,69.30
2018-02-16T21:28:52.743Z,69.22
2018-02-16T21:33:54.110Z,69.27
2018-02-16T21:38:56.257Z,69.53
2018-02-16T21:43:57.602Z,69.65
2018-02-16T21:48:59.704Z,69.48
2018-02-16T21:54:01.051Z,69.47
2018-02-16T21:59:02.475Z,69.62
2018-02-16T22:04:03.883Z,69.82
2018-02-16T22:09:05.960Z,69.79
2018-02-16T22:14:07.465Z,69.69
2018-02-16T22:19:08.854Z,69.59
2018-02-16T22:24:10.214Z,69.51
2018-02-16T22:29:11.553Z,69.28
2018-02-16T22:34:12.939Z,69.07
2018-02-16T22:39:15.033Z,69.17
2018-02-16T22:44:16.403Z,69.09
2018-02-16T22:49:17.792Z,69.47
2018-02-16T22:54:19.179Z,69.48
2018-02-16T22:59:20.520Z,69.84
2018-02-16T23:04:21.844Z,70.14
2018-02-16T23:09:23.240Z,70.27
2018-02-16T23:14:24.563Z,70.47
2018-02-16T23:19:25.989Z,70.62
2018-02-16T23:24:27.430Z,70.81
2018-02-16T23:29:29.536Z,71.04
2018-02-16T23:34:30.940Z,71.13
2018-02-16T23:39:32.334Z,71.36
2018-02-16T23:44:33.632Z,71.29
2018-02-16T23:49:35.012Z,71.17
2018-02-16T23:54:36.387Z,71.13
2018-02-16T23:59:37.766Z,70.91
